Time;durP1;ratioP1;P1;durP2;ratioP2;P2;SDS_P1;SDS_P2;PMS_P1;PMS_P2;Temp;Humidity;BMP_temperature;BMP_pressure;BME280_temperature;BME280_humidity;BME280_pressure;Samples;Min_cycle;Max_cycle;Signal;HPM_P1;HPM_P2
2022/06/15 00:01:27;;;;;;;5.32;1.88;;;24.30;40.30;;;;;;5094398;28;20031;-53
2022/06/15 00:03:53;;;;;;;3.67;1.40;;;24.30;40.30;;;;;;5095634;28;20028;-51
2022/06/15 00:06:20;;;;;;;6.78;1.80;;;24.30;40.30;;;;;;5094244;28;20673;-52
2022/06/15 00:08:47;;;;;;;6.10;1.50;;;24.20;40.20;;;;;;5095322;28;20023;-51
2022/06/15 00:11:34;;;;;;;6.50;1.60;;;24.20;40.20;;;;;;5095265;28;20019;-52
2022/06/15 00:14:09;;;;;;;2.97;1.40;;;24.20;40.20;;;;;;5095431;28;20012;-52
2022/06/15 00:16:35;;;;;;;3.45;1.63;;;24.20;40.30;;;;;;5095413;28;20020;-50
2022/06/15 00:19:02;;;;;;;5.00;1.52;;;24.20;40.30;;;;;;5095239;28;20012;-46
2022/06/15 00:21:28;;;;;;;2.70;1.15;;;24.20;40.30;;;;;;5095207;28;20027;-47
2022/06/15 00:23:54;;;;;;;4.95;1.60;;;24.20;40.40;;;;;;5093500;28;20411;-51
2022/06/15 00:26:20;;;;;;;4.35;1.60;;;24.20;40.40;;;;;;5094899;28;20024;-49
2022/06/15 00:28:45;;;;;;;4.28;1.70;;;24.20;40.50;;;;;;5093692;28;20020;-50
2022/06/15 00:31:11;;;;;;;4.95;1.92;;;24.10;40.50;;;;;;5093586;28;20036;-48
2022/06/15 00:33:37;;;;;;;6.05;2.03;;;24.20;40.50;;;;;;5093530;28;20368;-49
2022/06/15 00:36:08;;;;;;;4.93;1.48;;;24.20;40.50;;;;;;5093481;28;20376;-50
2022/06/15 00:38:39;;;;;;;6.13;2.00;;;24.10;40.50;;;;;;5094722;28;20024;-49
2022/06/15 00:41:05;;;;;;;4.55;2.10;;;24.10;40.50;;;;;;5094832;28;20077;-53
2022/06/15 00:43:35;;;;;;;2.45;1.13;;;24.10;40.50;;;;;;5094922;28;20044;-52
2022/06/15 00:46:15;;;;;;;2.60;1.25;;;24.10;40.50;;;;;;5094843;28;20106;-53
2022/06/15 00:48:41;;;;;;;3.47;1.60;;;24.10;40.60;;;;;;5093650;28;20016;-53
2022/06/15 00:51:08;;;;;;;6.07;1.92;;;24.10;40.60;;;;;;5093322;28;20016;-52
2022/06/15 00:53:34;;;;;;;3.80;1.50;;;24.10;40.60;;;;;;5094521;28;20107;-52
2022/06/15 00:56:00;;;;;;;3.92;1.60;;;24.10;40.70;;;;;;5094775;28;20020;-48
2022/06/15 00:58:27;;;;;;;4.10;1.40;;;24.10;40.70;;;;;;5093522;28;20025;-47
2022/06/15 01:00:56;;;;;;;3.33;1.33;;;24.10;40.70;;;;;;5094826;28;20016;-48
2022/06/15 01:03:21;;;;;;;4.80;1.90;;;24.00;40.60;;;;;;5093131;28;20066;-50
2022/06/15 01:06:09;;;;;;;3.75;1.30;;;24.00;40.60;;;;;;5094503;28;20044;-48
2022/06/15 01:08:48;;;;;;;4.45;1.25;;;24.10;40.60;;;;;;5092961;28;20012;-50
2022/06/15 01:11:46;;;;;;;2.72;1.20;;;24.00;40.50;;;;;;5093539;28;20077;-48
2022/06/15 01:14:29;;;;;;;5.10;1.52;;;24.00;40.60;;;;;;5079290;28;20028;-48
2022/06/15 01:17:19;;;;;;;2.30;1.30;;;24.00;40.60;;;;;;5094249;28;20040;-48
2022/06/15 01:20:03;;;;;;;4.43;1.83;;;24.00;40.70;;;;;;5094182;28;20020;-47
2022/06/15 01:22:59;;;;;;;3.95;1.55;;;23.90;40.70;;;;;;5094171;28;20035;-53
2022/06/15 01:25:54;;;;;;;3.20;1.50;;;23.90;40.70;;;;;;5094216;28;20044;-49
2022/06/15 01:28:32;;;;;;;3.80;1.40;;;23.90;40.60;;;;;;5090949;28;20032;-49
2022/06/15 01:31:07;;;;;;;4.75;1.58;;;23.90;40.60;;;;;;5094018;28;20467;-51
2022/06/15 01:33:42;;;;;;;3.28;1.30;;;24.00;40.70;;;;;;5093112;28;20027;-49
2022/06/15 01:36:19;;;;;;;2.53;1.33;;;23.90;40.70;;;;;;5095170;28;20475;-52
2022/06/15 01:38:59;;;;;;;3.83;1.63;;;23.90;40.70;;;;;;5095466;28;20077;-56
2022/06/15 01:41:36;;;;;;;4.47;1.55;;;23.90;40.70;;;;;;5096172;28;20020;-55
2022/06/15 01:44:17;;;;;;;4.38;1.73;;;23.90;40.70;;;;;;5095754;28;20046;-54
2022/06/15 01:46:44;;;;;;;6.07;1.33;;;23.90;40.70;;;;;;5096000;28;20055;-52
2022/06/15 01:49:20;;;;;;;3.42;1.67;;;23.90;40.70;;;;;;5097084;28;20081;-50
2022/06/15 01:51:46;;;;;;;4.78;1.60;;;23.90;40.80;;;;;;5096453;28;20023;-54
2022/06/15 01:54:27;;;;;;;4.25;1.55;;;23.90;40.80;;;;;;5095408;28;20024;-50
2022/06/15 01:56:52;;;;;;;3.97;1.52;;;23.90;40.80;;;;;;5095646;28;20012;-56
2022/06/15 01:59:33;;;;;;;2.88;1.30;;;23.90;40.90;;;;;;5094498;28;20031;-56
2022/06/15 02:02:19;;;;;;;2.55;1.27;;;23.90;40.90;;;;;;5093788;28;20042;-57
2022/06/15 02:05:09;;;;;;;2.65;1.33;;;23.90;41.00;;;;;;5093651;28;20020;-54
2022/06/15 02:07:50;;;;;;;4.00;1.65;;;23.90;41.10;;;;;;5094274;28;20085;-56
2022/06/15 02:10:18;;;;;;;5.20;1.50;;;23.90;41.10;;;;;;5094626;28;20095;-57
2022/06/15 02:13:03;;;;;;;3.45;1.50;;;23.90;41.20;;;;;;5096975;28;20016;-61
2022/06/15 02:15:29;;;;;;;3.55;1.50;;;23.80;41.20;;;;;;5096581;28;20008;-57
2022/06/15 02:17:57;;;;;;;3.72;1.30;;;23.80;41.20;;;;;;5095366;28;20008;-57
2022/06/15 02:20:28;;;;;;;3.40;1.50;;;23.80;41.30;;;;;;5095511;28;20083;-70
2022/06/15 02:22:55;;;;;;;4.45;1.50;;;23.80;41.30;;;;;;5078327;28;20038;-66
2022/06/15 02:25:22;;;;;;;3.35;1.60;;;23.80;41.30;;;;;;5095039;28;20036;-57
2022/06/15 02:27:50;;;;;;;4.95;1.50;;;23.80;41.30;;;;;;5095168;28;20054;-56
2022/06/15 02:30:21;;;;;;;3.15;1.60;;;23.80;41.30;;;;;;5095696;28;20149;-56
2022/06/15 02:32:48;;;;;;;5.82;1.70;;;23.80;41.40;;;;;;5096026;28;20012;-56
2022/06/15 02:35:17;;;;;;;4.50;1.73;;;23.80;41.40;;;;;;5095691;28;20031;-56
2022/06/15 02:37:43;;;;;;;4.15;1.58;;;23.80;41.40;;;;;;5094139;28;20012;-56
2022/06/15 02:40:12;;;;;;;4.60;1.42;;;23.80;41.40;;;;;;5093866;28;20055;-57
2022/06/15 02:42:41;;;;;;;5.03;1.70;;;23.80;41.40;;;;;;5094181;28;20016;-56
2022/06/15 02:45:38;;;;;;;10.38;1.80;;;23.80;41.40;;;;;;5096002;28;20032;-57
2022/06/15 02:48:04;;;;;;;5.30;1.70;;;23.80;41.40;;;;;;5097024;28;20112;-57
2022/06/15 02:50:33;;;;;;;4.30;1.38;;;23.80;41.50;;;;;;5100007;28;20019;-57
2022/06/15 02:53:06;;;;;;;2.55;1.40;;;23.80;41.50;;;;;;5098788;28;20016;-56
2022/06/15 02:55:31;;;;;;;5.47;1.40;;;23.70;41.50;;;;;;5080168;28;20020;-53
2022/06/15 02:58:11;;;;;;;3.47;1.33;;;23.70;41.50;;;;;;5098364;28;20439;-56
2022/06/15 03:00:38;;;;;;;5.55;1.60;;;23.70;41.50;;;;;;5097634;28;20016;-56
2022/06/15 03:03:04;;;;;;;4.50;1.20;;;23.70;41.50;;;;;;5097602;28;20019;-54
2022/06/15 03:05:30;;;;;;;4.50;1.67;;;23.70;41.60;;;;;;5097711;28;20069;-56
2022/06/15 03:07:55;;;;;;;5.85;1.45;;;23.70;41.60;;;;;;5096350;28;20362;-56
2022/06/15 03:10:21;;;;;;;4.28;1.60;;;23.70;41.60;;;;;;5079127;28;20016;-56
2022/06/15 03:12:46;;;;;;;4.68;1.60;;;23.70;41.60;;;;;;5096200;28;20023;-55
2022/06/15 03:15:14;;;;;;;5.03;2.17;;;23.70;41.60;;;;;;5096851;28;20548;-54
2022/06/15 03:17:39;;;;;;;6.28;1.50;;;23.70;41.60;;;;;;5097656;28;20056;-57
2022/06/15 03:20:07;;;;;;;5.45;1.77;;;23.70;41.60;;;;;;5097942;28;20087;-56
2022/06/15 03:22:33;;;;;;;3.75;1.55;;;23.70;41.70;;;;;;5098413;28;20012;-54
2022/06/15 03:24:59;;;;;;;5.07;1.80;;;23.70;41.70;;;;;;5099163;28;20033;-53
2022/06/15 03:27:25;;;;;;;5.05;1.50;;;23.70;41.70;;;;;;5100868;28;20066;-56
2022/06/15 03:29:53;;;;;;;4.97;1.33;;;23.60;41.70;;;;;;5097983;28;20081;-56
2022/06/15 03:32:18;;;;;;;3.72;1.75;;;23.60;41.70;;;;;;5097522;28;20024;-53
2022/06/15 03:34:45;;;;;;;5.38;1.75;;;23.60;41.70;;;;;;5096707;28;20013;-56
2022/06/15 03:37:10;;;;;;;5.68;1.83;;;23.60;41.70;;;;;;5095377;28;20023;-55
2022/06/15 03:39:37;;;;;;;9.10;1.63;;;23.60;41.80;;;;;;5096553;28;20020;-54
2022/06/15 03:42:12;;;;;;;3.22;1.30;;;23.60;41.80;;;;;;5096013;28;20031;-54
2022/06/15 03:44:38;;;;;;;6.80;1.45;;;23.60;41.80;;;;;;5094431;28;20103;-53
2022/06/15 03:47:06;;;;;;;5.38;1.55;;;23.60;41.90;;;;;;5094784;28;20020;-54
2022/06/15 03:49:32;;;;;;;4.95;1.60;;;23.60;41.90;;;;;;5095595;28;20087;-55
2022/06/15 03:51:58;;;;;;;5.32;1.58;;;23.60;41.90;;;;;;5095500;28;20019;-55
2022/06/15 03:54:24;;;;;;;4.13;1.55;;;23.60;42.00;;;;;;5095746;28;20100;-55
2022/06/15 03:56:51;;;;;;;5.93;1.58;;;23.60;42.00;;;;;;5076930;28;20115;-54
2022/06/15 03:59:16;;;;;;;4.50;1.45;;;23.60;42.10;;;;;;5095443;28;20012;-54
2022/06/15 04:01:42;;;;;;;4.53;1.80;;;23.60;42.10;;;;;;5094135;28;20027;-55
2022/06/15 04:04:09;;;;;;;2.92;1.42;;;23.60;42.20;;;;;;5095153;28;20029;-55
2022/06/15 04:06:35;;;;;;;7.20;2.10;;;23.60;42.20;;;;;;5095516;28;20040;-55
2022/06/15 04:09:01;;;;;;;5.20;1.42;;;23.60;42.30;;;;;;5095210;28;20028;-55
2022/06/15 04:14:11;;;;;;;3.65;1.60;;;23.60;42.40;;;;;;5094264;28;20073;-55
2022/06/15 04:16:37;;;;;;;3.55;1.83;;;23.60;42.50;;;;;;5095124;28;20012;-54
2022/06/15 04:19:07;;;;;;;3.20;1.40;;;23.50;42.50;;;;;;5093892;28;20044;-55
2022/06/15 04:21:33;;;;;;;6.38;1.67;;;23.60;42.60;;;;;;5094959;28;20035;-55
2022/06/15 04:23:59;;;;;;;5.68;1.42;;;23.60;42.50;;;;;;5094963;28;20040;-49
2022/06/15 04:26:25;;;;;;;3.40;1.55;;;23.60;42.60;;;;;;5095096;28;20480;-49
2022/06/15 04:28:50;;;;;;;5.47;1.88;;;23.60;42.60;;;;;;5093839;28;20069;-50
2022/06/15 04:31:16;;;;;;;4.25;1.70;;;23.60;42.60;;;;;;5094990;28;20462;-49
2022/06/15 04:33:42;;;;;;;4.40;1.77;;;23.60;42.60;;;;;;5094059;28;20058;-49
2022/06/15 04:36:10;;;;;;;4.03;1.60;;;23.60;43.20;;;;;;5093544;28;20447;-50
2022/06/15 04:38:36;;;;;;;3.58;1.48;;;23.60;42.60;;;;;;5095099;28;20020;-48
2022/06/15 04:41:03;;;;;;;3.20;1.50;;;23.50;42.60;;;;;;5093590;28;20477;-48
2022/06/15 04:43:29;;;;;;;7.22;1.85;;;23.50;42.60;;;;;;5094846;28;20028;-49
2022/06/15 04:45:56;;;;;;;3.80;1.52;;;23.60;42.70;;;;;;5094617;28;20016;-49
2022/06/15 04:48:22;;;;;;;5.90;1.60;;;23.60;42.70;;;;;;5095017;28;20031;-48
2022/06/15 04:50:48;;;;;;;6.03;2.13;;;23.50;42.60;;;;;;5094523;28;20012;-50
2022/06/15 04:53:14;;;;;;;3.97;1.40;;;23.50;42.60;;;;;;5093505;28;20123;-49
2022/06/15 04:55:39;;;;;;;4.60;1.77;;;23.60;42.50;;;;;;5093405;28;20039;-53
2022/06/15 04:58:06;;;;;;;3.67;1.80;;;23.50;42.70;;;;;;5094686;28;20022;-49
2022/06/15 05:00:35;;;;;;;6.80;1.55;;;23.50;42.70;;;;;;5095853;28;20095;-50
2022/06/15 05:03:02;;;;;;;3.10;1.40;;;23.50;42.70;;;;;;5096550;28;20047;-52
2022/06/15 05:05:28;;;;;;;4.30;1.92;;;23.50;42.70;;;;;;5094571;28;20439;-56
2022/06/15 05:07:54;;;;;;;3.90;1.52;;;23.50;42.70;;;;;;5093638;28;20016;-57
2022/06/15 05:10:22;;;;;;;5.25;1.83;;;23.50;42.70;;;;;;5094438;28;20036;-52
2022/06/15 05:12:48;;;;;;;7.13;1.73;;;23.50;42.70;;;;;;5094836;28;20073;-52
2022/06/15 05:15:15;;;;;;;5.75;1.42;;;23.60;42.70;;;;;;5094869;28;20043;-51
2022/06/15 05:17:41;;;;;;;4.25;1.80;;;23.60;42.70;;;;;;5093315;28;20061;-47
2022/06/15 05:20:08;;;;;;;4.72;1.85;;;23.60;42.70;;;;;;5093190;28;20490;-52
2022/06/15 05:22:36;;;;;;;4.60;1.90;;;23.60;42.80;;;;;;5094254;28;20024;-48
2022/06/15 05:25:06;;;;;;;5.45;1.65;;;23.50;42.70;;;;;;5094019;28;20048;-49
